Time,TemperatureF,DewpointF,PressureIn,WindDirection,WindDirectionDegrees,WindSpeedMPH,WindSpeedGustMPH,Humidity,HourlyPrecipIn,Conditions,Clouds,dailyrainin,SoftwareType,DateUTC
2013-05-06 00:02:00,40.3,39.6,29.94,SE,140,10.0,17.0,97,0.02,,,0.02,meteohub,2013-05-06 07:02:00,
2013-05-06 00:07:00,40.3,39.6,29.94,SSE,160,6.0,18.0,97,0.03,,,0.01,meteohub,2013-05-06 07:07:00,
2013-05-06 00:12:00,40.3,39.6,29.94,SSE,151,7.0,18.0,97,0.04,,,0.02,meteohub,2013-05-06 07:12:00,
2013-05-06 00:17:00,40.3,39.6,29.93,SW,222,8.0,18.0,97,0.04,,,0.02,meteohub,2013-05-06 07:17:00,
2013-05-06 00:22:00,40.3,39.6,29.93,WSW,239,9.0,17.0,97,0.04,,,0.02,meteohub,2013-05-06 07:22:00,
2013-05-06 00:27:00,40.3,39.6,29.93,South,174,9.0,18.0,97,0.05,,,0.03,meteohub,2013-05-06 07:27:00,
2013-05-06 00:32:00,40.3,39.6,29.93,WSW,257,8.0,19.0,97,0.05,,,0.03,meteohub,2013-05-06 07:32:00,
2013-05-06 00:37:00,40.3,39.7,29.92,SSE,152,14.0,19.0,98,0.04,,,0.03,meteohub,2013-05-06 07:37:00,
2013-05-06 00:42:00,40.3,39.7,29.93,SSE,165,6.0,20.0,98,0.04,,,0.03,meteohub,2013-05-06 07:42:00,
2013-05-06 00:47:00,40.3,39.7,29.94,SW,217,10.0,20.0,98,0.04,,,0.03,meteohub,2013-05-06 07:47:00,
2013-05-06 00:52:00,40.1,39.6,29.93,ESE,113,5.0,20.0,98,0.05,,,0.04,meteohub,2013-05-06 07:52:00,
2013-05-06 00:57:00,40.1,39.6,29.93,WNW,296,5.0,19.0,98,0.04,,,0.04,meteohub,2013-05-06 07:57:00,
2013-05-06 01:02:00,39.9,39.4,29.93,SSW,195,1.0,19.0,98,0.04,,,0.04,meteohub,2013-05-06 08:02:00,
2013-05-06 01:07:00,40.1,39.6,29.93,SSW,211,7.0,22.0,98,0.03,,,0.04,meteohub,2013-05-06 08:07:00,
2013-05-06 01:12:00,40.1,39.6,29.92,SE,136,10.0,22.0,98,0.02,,,0.04,meteohub,2013-05-06 08:12:00,
2013-05-06 01:17:00,39.9,39.4,29.92,SE,141,6.0,15.0,98,0.03,,,0.05,meteohub,2013-05-06 08:17:00,
2013-05-06 01:22:00,39.9,39.4,29.92,SSW,196,15.0,15.0,98,0.03,,,0.05,meteohub,2013-05-06 08:22:00,
2013-05-06 01:27:00,39.7,39.2,29.92,ESE,113,7.0,15.0,98,0.02,,,0.05,meteohub,2013-05-06 08:27:00,
2013-05-06 01:32:00,39.7,39.2,29.93,SW,214,10.0,20.0,98,0.03,,,0.06,meteohub,2013-05-06 08:32:00,
2013-05-06 01:37:00,39.6,39.0,29.92,West,269,5.0,20.0,98,0.04,,,0.07,meteohub,2013-05-06 08:37:00,
2013-05-06 01:42:00,39.6,39.0,29.93,SE,143,6.0,22.0,98,0.04,,,0.07,meteohub,2013-05-06 08:42:00,
2013-05-06 01:47:00,39.6,39.0,29.94,ESE,115,9.0,22.0,98,0.04,,,0.07,meteohub,2013-05-06 08:47:00,
2013-05-06 01:52:00,39.6,39.0,29.94,SW,233,5.0,22.0,98,0.04,,,0.08,meteohub,2013-05-06 08:52:00,
2013-05-06 01:57:00,39.6,39.0,29.94,SE,138,2.0,18.0,98,0.05,,,0.09,meteohub,2013-05-06 08:57:00,
2013-05-06 02:02:00,39.6,39.0,29.94,SSE,153,5.0,18.0,98,0.06,,,0.10,meteohub,2013-05-06 09:02:00,
2013-05-06 02:07:00,39.6,39.0,29.93,ESE,120,12.0,18.0,98,0.06,,,0.10,meteohub,2013-05-06 09:07:00,
2013-05-06 02:12:00,39.6,39.0,29.93,SE,131,2.0,17.0,98,0.06,,,0.10,meteohub,2013-05-06 09:12:00,
2013-05-06 02:17:00,39.6,39.0,29.94,SE,141,6.0,17.0,98,0.05,,,0.10,meteohub,2013-05-06 09:17:00,
2013-05-06 02:22:00,39.7,39.2,29.94,East,101,4.0,15.0,98,0.06,,,0.11,meteohub,2013-05-06 09:22:00,
2013-05-06 02:27:00,39.7,39.2,29.94,SW,218,4.0,19.0,98,0.06,,,0.11,meteohub,2013-05-06 09:27:00,
2013-05-06 02:32:00,39.7,39.2,29.94,West,273,0.0,19.0,98,0.05,,,0.11,meteohub,2013-05-06 09:32:00,
2013-05-06 02:37:00,39.9,39.4,29.94,ESE,120,4.0,19.0,98,0.05,,,0.12,meteohub,2013-05-06 09:37:00,
2013-05-06 02:42:00,39.9,39.4,29.93,South,186,1.0,12.0,98,0.06,,,0.13,meteohub,2013-05-06 09:42:00,
2013-05-06 02:47:00,39.9,39.4,29.93,WSW,238,5.0,12.0,98,0.05,,,0.13,meteohub,2013-05-06 09:47:00,
2013-05-06 02:52:00,39.9,39.4,29.93,WSW,240,5.0,16.0,98,0.05,,,0.13,meteohub,2013-05-06 09:52:00,
2013-05-06 02:57:00,39.9,39.4,29.93,West,277,1.0,16.0,98,0.04,,,0.13,meteohub,2013-05-06 09:57:00,
2013-05-06 03:02:00,39.9,39.4,29.94,ESE,115,9.0,14.0,98,0.03,,,0.13,meteohub,2013-05-06 10:02:00,
2013-05-06 03:07:00,39.9,39.4,29.94,SSW,204,4.0,14.0,98,0.03,,,0.13,meteohub,2013-05-06 10:07:00,
2013-05-06 03:12:00,39.9,39.4,29.94,SSE,153,6.0,12.0,98,0.03,,,0.13,meteohub,2013-05-06 10:12:00,
2013-05-06 03:17:00,39.9,39.4,29.94,NW,309,5.0,11.0,98,0.04,,,0.14,meteohub,2013-05-06 10:17:00,
2013-05-06 03:22:00,39.9,39.4,29.94,SSW,200,3.0,11.0,98,0.03,,,0.14,meteohub,2013-05-06 10:22:00,
2013-05-06 03:27:00,39.9,39.4,29.94,East,84,3.0,14.0,98,0.03,,,0.14,meteohub,2013-05-06 10:27:00,
2013-05-06 03:32:00,39.9,39.4,29.94,East,86,1.0,14.0,98,0.02,,,0.14,meteohub,2013-05-06 10:32:00,
2013-05-06 03:37:00,39.9,39.4,29.95,SSE,148,11.0,13.0,98,0.02,,,0.14,meteohub,2013-05-06 10:37:00,
2013-05-06 03:42:00,39.9,39.4,29.94,ESE,119,3.0,18.0,98,0.01,,,0.14,meteohub,2013-05-06 10:42:00,
2013-05-06 03:47:00,39.9,39.4,29.95,ESE,117,10.0,18.0,98,0.01,,,0.14,meteohub,2013-05-06 10:47:00,
2013-05-06 03:52:00,39.9,39.4,29.94,West,259,3.0,21.0,98,0.02,,,0.15,meteohub,2013-05-06 10:52:00,
2013-05-06 03:57:00,39.9,39.4,29.94,SE,131,4.0,21.0,98,0.02,,,0.15,meteohub,2013-05-06 10:57:00,
2013-05-06 04:02:00,39.9,39.4,29.94,NE,53,2.0,21.0,98,0.02,,,0.15,meteohub,2013-05-06 11:02:00,
2013-05-06 04:07:00,40.1,39.6,29.94,SE,139,8.0,20.0,98,0.02,,,0.15,meteohub,2013-05-06 11:07:00,
2013-05-06 04:12:00,40.1,39.6,29.94,NE,39,2.0,18.0,98,0.01,,,0.15,meteohub,2013-05-06 11:12:00,
2013-05-06 04:17:00,40.1,39.6,29.94,WNW,297,5.0,18.0,98,0.02,,,0.16,meteohub,2013-05-06 11:17:00,
2013-05-06 04:22:00,40.1,39.6,29.94,South,174,3.0,15.0,98,0.03,,,0.17,meteohub,2013-05-06 11:22:00,
2013-05-06 04:27:00,39.9,39.4,29.94,ESE,107,10.0,16.0,98,0.05,,,0.18,meteohub,2013-05-06 11:27:00,
2013-05-06 04:32:00,39.9,39.4,29.94,South,174,1.0,18.0,98,0.06,,,0.20,meteohub,2013-05-06 11:32:00,
2013-05-06 04:37:00,39.9,39.4,29.94,West,262,3.0,18.0,98,0.08,,,0.22,meteohub,2013-05-06 11:37:00,
2013-05-06 04:42:00,39.9,39.4,29.94,NW,322,3.0,18.0,98,0.10,,,0.24,meteohub,2013-05-06 11:42:00,
2013-05-06 04:47:00,40.3,39.7,29.94,East,100,11.0,15.0,98,0.09,,,0.24,meteohub,2013-05-06 11:47:00,
2013-05-06 04:52:00,40.3,39.7,29.94,ENE,70,0.0,22.0,98,0.09,,,0.24,meteohub,2013-05-06 11:52:00,
2013-05-06 04:57:00,40.3,39.7,29.94,SSW,209,1.0,22.0,98,0.09,,,0.24,meteohub,2013-05-06 11:57:00,
2013-05-06 05:02:00,40.5,39.9,29.93,SE,132,0.0,21.0,98,0.09,,,0.24,meteohub,2013-05-06 12:02:00,
2013-05-06 05:07:00,40.5,39.9,29.93,NE,53,5.0,18.0,98,0.09,,,0.24,meteohub,2013-05-06 12:07:00,
2013-05-06 05:12:00,40.5,39.9,29.93,NNE,27,3.0,18.0,98,0.09,,,0.24,meteohub,2013-05-06 12:12:00,
2013-05-06 05:17:00,40.6,40.1,29.94,WSW,238,3.0,12.0,98,0.08,,,0.24,meteohub,2013-05-06 12:17:00,
2013-05-06 05:22:00,40.6,40.1,29.94,South,177,3.0,19.0,98,0.07,,,0.24,meteohub,2013-05-06 12:22:00,
2013-05-06 05:27:00,40.6,40.1,29.94,ENE,76,1.0,19.0,98,0.05,,,0.24,meteohub,2013-05-06 12:27:00,
2013-05-06 05:32:00,40.6,40.1,29.94,South,179,5.0,19.0,98,0.03,,,0.24,meteohub,2013-05-06 12:32:00,
2013-05-06 05:37:00,40.6,40.1,29.94,SW,236,11.0,18.0,98,0.03,,,0.25,meteohub,2013-05-06 12:37:00,
2013-05-06 05:42:00,40.8,40.3,29.94,WSW,258,5.0,18.0,98,0.01,,,0.25,meteohub,2013-05-06 12:42:00,
2013-05-06 05:47:00,40.8,40.3,29.94,WSW,250,3.0,18.0,98,0.01,,,0.25,meteohub,2013-05-06 12:47:00,
2013-05-06 05:52:00,40.8,40.3,29.94,SW,220,15.0,15.0,98,0.01,,,0.25,meteohub,2013-05-06 12:52:00,
2013-05-06 05:57:00,41.0,40.5,29.94,ESE,108,3.0,15.0,98,0.01,,,0.25,meteohub,2013-05-06 12:57:00,
2013-05-06 06:02:00,41.2,40.6,29.95,SE,143,3.0,15.0,98,0.01,,,0.25,meteohub,2013-05-06 13:02:00,
2013-05-06 06:07:00,41.2,40.6,29.95,East,80,2.0,15.0,98,0.01,,,0.25,meteohub,2013-05-06 13:07:00,
2013-05-06 06:12:00,41.2,40.6,29.94,NW,322,3.0,14.0,98,0.01,,,0.25,meteohub,2013-05-06 13:12:00,
2013-05-06 06:17:00,41.2,40.6,29.95,West,280,7.0,18.0,98,0.02,,,0.26,meteohub,2013-05-06 13:17:00,
2013-05-06 06:22:00,41.2,40.6,29.95,NW,309,2.0,18.0,98,0.03,,,0.27,meteohub,2013-05-06 13:22:00,
2013-05-06 06:27:00,41.2,40.6,29.94,ENE,58,0.0,18.0,98,0.04,,,0.28,meteohub,2013-05-06 13:27:00,
2013-05-06 06:32:00,41.4,40.8,29.95,WSW,252,4.0,15.0,98,0.06,,,0.30,meteohub,2013-05-06 13:32:00,
2013-05-06 06:37:00,41.4,40.8,29.96,NE,53,2.0,18.0,98,0.05,,,0.30,meteohub,2013-05-06 13:37:00,
2013-05-06 06:42:00,41.4,40.8,29.96,NNE,33,5.0,18.0,98,0.05,,,0.30,meteohub,2013-05-06 13:42:00,
2013-05-06 06:47:00,41.4,40.8,29.96,NW,321,0.0,11.0,98,0.06,,,0.31,meteohub,2013-05-06 13:47:00,
2013-05-06 06:52:00,41.5,41.0,29.97,WNW,293,0.0,11.0,98,0.06,,,0.31,meteohub,2013-05-06 13:52:00,
2013-05-06 06:57:00,41.5,41.0,29.97,West,271,6.0,11.0,98,0.06,,,0.31,meteohub,2013-05-06 13:57:00,
2013-05-06 07:02:00,41.5,41.0,29.97,SE,134,4.0,22.0,98,0.06,,,0.31,meteohub,2013-05-06 14:02:00,
2013-05-06 07:07:00,41.5,41.0,29.98,East,84,2.0,22.0,98,0.06,,,0.31,meteohub,2013-05-06 14:07:00,
2013-05-06 07:12:00,41.7,41.2,29.98,NW,314,11.0,22.0,98,0.06,,,0.31,meteohub,2013-05-06 14:12:00,
2013-05-06 07:17:00,41.7,41.2,29.98,West,280,3.0,19.0,98,0.05,,,0.31,meteohub,2013-05-06 14:17:00,
2013-05-06 07:22:00,41.7,41.2,29.98,WNW,283,3.0,19.0,98,0.04,,,0.31,meteohub,2013-05-06 14:22:00,
2013-05-06 07:27:00,41.7,41.2,29.98,WSW,245,8.0,19.0,98,0.02,,,0.31,meteohub,2013-05-06 14:27:00,
2013-05-06 07:32:00,41.7,41.2,29.99,SSW,212,4.0,19.0,98,0.02,,,0.32,meteohub,2013-05-06 14:32:00,
2013-05-06 07:37:00,41.7,41.2,29.98,SE,144,1.0,19.0,98,0.02,,,0.32,meteohub,2013-05-06 14:37:00,
2013-05-06 07:42:00,41.5,41.0,29.99,SW,217,6.0,20.0,98,0.01,,,0.32,meteohub,2013-05-06 14:42:00,
2013-05-06 07:47:00,41.5,41.0,29.99,ENE,61,6.0,20.0,98,0.01,,,0.32,meteohub,2013-05-06 14:47:00,
2013-05-06 07:52:00,41.5,41.0,29.99,ESE,118,6.0,24.0,98,0.01,,,0.32,meteohub,2013-05-06 14:52:00,
2013-05-06 07:57:00,41.4,40.8,29.99,SW,235,6.0,24.0,98,0.01,,,0.32,meteohub,2013-05-06 14:57:00,
2013-05-06 08:02:00,40.8,40.3,30.00,ESE,117,6.0,24.0,98,0.01,,,0.32,meteohub,2013-05-06 15:02:00,
2013-05-06 08:07:00,40.8,40.3,30.00,SSW,193,8.0,20.0,98,0.01,,,0.32,meteohub,2013-05-06 15:07:00,
2013-05-06 08:12:00,40.6,40.1,30.00,South,188,6.0,23.0,98,0.01,,,0.32,meteohub,2013-05-06 15:12:00,
2013-05-06 08:17:00,40.5,39.9,30.01,NE,47,4.0,25.0,98,0.02,,,0.33,meteohub,2013-05-06 15:17:00,
2013-05-06 08:22:00,40.3,39.7,30.01,ENE,66,9.0,25.0,98,0.02,,,0.33,meteohub,2013-05-06 15:22:00,
2013-05-06 08:32:00,40.3,39.7,30.01,ENE,72,4.0,22.0,98,0.01,,,0.33,meteohub,2013-05-06 15:32:00,
2013-05-06 08:37:00,40.3,39.7,30.01,WSW,256,6.0,22.0,98,0.01,,,0.33,meteohub,2013-05-06 15:37:00,
2013-05-06 08:42:00,39.9,39.4,30.01,SW,226,7.0,16.0,98,0.01,,,0.33,meteohub,2013-05-06 15:42:00,
2013-05-06 08:47:00,39.9,39.4,30.01,ENE,75,3.0,19.0,98,0.01,,,0.33,meteohub,2013-05-06 15:47:00,
2013-05-06 08:52:00,39.9,39.4,30.02,SSE,157,11.0,19.0,98,0.01,,,0.33,meteohub,2013-05-06 15:52:00,
2013-05-06 08:57:00,39.7,39.2,30.02,SSE,166,0.0,17.0,98,0.01,,,0.33,meteohub,2013-05-06 15:57:00,
2013-05-06 09:02:00,39.9,39.4,30.02,ENE,60,0.0,17.0,98,0.01,,,0.33,meteohub,2013-05-06 16:02:00,
2013-05-06 09:07:00,40.1,39.6,30.02,SW,236,1.0,17.0,98,0.01,,,0.33,meteohub,2013-05-06 16:07:00,
2013-05-06 09:12:00,40.1,39.6,30.02,SE,124,9.0,14.0,98,0.01,,,0.33,meteohub,2013-05-06 16:12:00,
2013-05-06 09:17:00,40.3,39.7,30.02,SSW,196,3.0,14.0,98,0.00,,,0.33,meteohub,2013-05-06 16:17:00,
2013-05-06 09:22:00,40.3,39.7,30.02,SSE,160,2.0,14.0,98,0.01,,,0.34,meteohub,2013-05-06 16:22:00,
2013-05-06 09:27:00,40.3,39.7,30.02,East,101,4.0,12.0,98,0.02,,,0.35,meteohub,2013-05-06 16:27:00,
2013-05-06 09:32:00,39.9,39.4,30.01,ESE,110,11.0,11.0,98,0.02,,,0.35,meteohub,2013-05-06 16:32:00,
2013-05-06 09:37:00,39.7,39.2,30.02,SE,140,2.0,16.0,98,0.02,,,0.35,meteohub,2013-05-06 16:37:00,
2013-05-06 09:42:00,39.7,39.2,30.01,WSW,248,4.0,16.0,98,0.03,,,0.36,meteohub,2013-05-06 16:42:00,
2013-05-06 09:47:00,39.9,39.4,30.01,SW,234,2.0,17.0,98,0.03,,,0.36,meteohub,2013-05-06 16:47:00,
2013-05-06 09:52:00,39.9,39.4,30.01,West,264,3.0,17.0,98,0.03,,,0.36,meteohub,2013-05-06 16:52:00,
2013-05-06 09:57:00,39.9,39.4,30.01,NNE,20,0.0,17.0,98,0.03,,,0.36,meteohub,2013-05-06 16:57:00,
2013-05-06 10:02:00,40.1,39.6,30.02,NW,308,2.0,13.0,98,0.03,,,0.36,meteohub,2013-05-06 17:02:00,
2013-05-06 10:07:00,40.3,39.7,30.02,SSE,167,6.0,12.0,98,0.03,,,0.36,meteohub,2013-05-06 17:07:00,
2013-05-06 10:12:00,40.3,39.7,30.01,SW,218,6.0,15.0,98,0.03,,,0.36,meteohub,2013-05-06 17:12:00,
2013-05-06 10:17:00,40.3,39.7,30.02,South,177,4.0,15.0,98,0.02,,,0.36,meteohub,2013-05-06 17:17:00,
2013-05-06 10:22:00,40.5,39.9,30.01,WSW,256,5.0,20.0,98,0.01,,,0.36,meteohub,2013-05-06 17:22:00,
2013-05-06 10:27:00,40.6,40.1,30.02,WNW,283,1.0,20.0,98,0.01,,,0.36,meteohub,2013-05-06 17:27:00,
2013-05-06 10:32:00,40.8,40.3,30.02,East,91,1.0,20.0,98,0.01,,,0.36,meteohub,2013-05-06 17:32:00,
2013-05-06 10:37:00,40.8,40.3,30.02,ESE,120,4.0,16.0,98,0.00,,,0.36,meteohub,2013-05-06 17:37:00,
2013-05-06 10:42:00,40.8,40.3,30.02,SE,141,4.0,16.0,98,0.00,,,0.36,meteohub,2013-05-06 17:42:00,
2013-05-06 10:47:00,41.2,40.6,30.02,SW,236,2.0,21.0,98,0.00,,,0.36,meteohub,2013-05-06 17:47:00,
2013-05-06 10:52:00,41.2,40.6,30.02,SE,134,8.0,21.0,98,0.00,,,0.36,meteohub,2013-05-06 17:52:00,
2013-05-06 10:57:00,41.4,40.8,30.02,SE,127,8.0,21.0,98,0.00,,,0.36,meteohub,2013-05-06 17:57:00,
2013-05-06 11:02:00,41.4,40.8,30.02,SW,226,4.0,15.0,98,0.00,,,0.36,meteohub,2013-05-06 18:02:00,
2013-05-06 11:07:00,41.2,40.6,30.02,NNE,13,4.0,15.0,98,0.01,,,0.37,meteohub,2013-05-06 18:07:00,
2013-05-06 11:12:00,41.4,40.8,30.03,WSW,243,3.0,14.0,98,0.02,,,0.38,meteohub,2013-05-06 18:12:00,
2013-05-06 11:17:00,41.5,41.0,30.04,ENE,60,0.0,16.0,98,0.04,,,0.39,meteohub,2013-05-06 18:17:00,
2013-05-06 11:22:00,41.7,41.2,30.04,West,262,1.0,16.0,98,0.05,,,0.41,meteohub,2013-05-06 18:22:00,
2013-05-06 11:27:00,41.7,41.2,30.04,NNE,23,4.0,16.0,98,0.08,,,0.44,meteohub,2013-05-06 18:27:00,
2013-05-06 11:32:00,41.2,40.6,30.04,SW,217,3.0,10.0,98,0.10,,,0.46,meteohub,2013-05-06 18:32:00,
2013-05-06 11:37:00,40.8,40.3,30.04,SE,145,3.0,10.0,98,0.13,,,0.49,meteohub,2013-05-06 18:37:00,
2013-05-06 11:42:00,40.6,40.1,30.04,ESE,110,8.0,13.0,98,0.17,,,0.53,meteohub,2013-05-06 18:42:00,
2013-05-06 11:47:00,40.8,40.3,30.04,ESE,106,5.0,13.0,98,0.18,,,0.54,meteohub,2013-05-06 18:47:00,
2013-05-06 11:52:00,40.8,40.3,30.04,SSW,196,3.0,13.0,98,0.22,,,0.58,meteohub,2013-05-06 18:52:00,
2013-05-06 11:57:00,41.0,40.5,30.05,WSW,240,0.0,14.0,98,0.25,,,0.61,meteohub,2013-05-06 18:57:00,
2013-05-06 12:02:00,41.2,40.6,30.05,South,186,4.0,14.0,98,0.26,,,0.62,meteohub,2013-05-06 19:02:00,
2013-05-06 12:07:00,41.0,40.5,30.05,West,278,0.0,11.0,98,0.29,,,0.66,meteohub,2013-05-06 19:07:00,
2013-05-06 12:12:00,40.8,40.3,30.05,WSW,253,1.0,10.0,98,0.31,,,0.69,meteohub,2013-05-06 19:12:00,
2013-05-06 12:17:00,40.8,40.3,30.05,East,95,1.0,11.0,98,0.30,,,0.70,meteohub,2013-05-06 19:17:00,
2013-05-06 12:22:00,40.8,40.3,30.05,East,79,0.0,11.0,98,0.30,,,0.72,meteohub,2013-05-06 19:22:00,
2013-05-06 12:27:00,40.8,40.3,30.05,South,182,1.0,11.0,98,0.29,,,0.74,meteohub,2013-05-06 19:27:00,
2013-05-06 12:32:00,40.8,40.3,30.04,SSE,158,2.0,11.0,98,0.27,,,0.75,meteohub,2013-05-06 19:32:00,
2013-05-06 12:37:00,40.8,40.3,30.04,SE,132,0.0,11.0,98,0.26,,,0.76,meteohub,2013-05-06 19:37:00,
2013-05-06 12:42:00,40.8,40.3,30.04,ENE,75,1.0,10.0,98,0.23,,,0.77,meteohub,2013-05-06 19:42:00,
2013-05-06 12:47:00,40.8,40.3,30.04,South,183,9.0,10.0,98,0.21,,,0.77,meteohub,2013-05-06 19:47:00,
2013-05-06 12:52:00,40.8,40.3,30.04,SSW,205,1.0,11.0,98,0.19,,,0.78,meteohub,2013-05-06 19:52:00,
2013-05-06 12:57:00,40.8,40.3,30.04,SSE,167,4.0,11.0,98,0.18,,,0.79,meteohub,2013-05-06 19:57:00,
2013-05-06 13:02:00,41.0,40.5,30.04,SSE,166,5.0,11.0,98,0.15,,,0.79,meteohub,2013-05-06 20:02:00,
2013-05-06 13:07:00,41.2,40.6,30.04,SSE,165,2.0,13.0,98,0.13,,,0.80,meteohub,2013-05-06 20:07:00,
2013-05-06 13:12:00,41.4,40.8,30.04,NNW,330,1.0,13.0,98,0.11,,,0.80,meteohub,2013-05-06 20:12:00,
2013-05-06 13:17:00,41.5,41.0,30.04,South,181,6.0,13.0,98,0.09,,,0.80,meteohub,2013-05-06 20:17:00,
2013-05-06 13:22:00,41.5,41.0,30.04,SSE,167,4.0,9.0,98,0.07,,,0.80,meteohub,2013-05-06 20:22:00,
2013-05-06 13:27:00,41.7,41.2,30.03,SSE,155,3.0,9.0,98,0.05,,,0.80,meteohub,2013-05-06 20:27:00,
2013-05-06 13:32:00,41.9,41.4,30.04,SSW,194,4.0,15.0,98,0.04,,,0.80,meteohub,2013-05-06 20:32:00,
2013-05-06 13:37:00,42.1,41.5,30.04,South,177,3.0,15.0,98,0.03,,,0.80,meteohub,2013-05-06 20:37:00,
2013-05-06 13:42:00,42.3,41.7,30.04,North,350,2.0,15.0,98,0.04,,,0.80,meteohub,2013-05-06 20:42:00,
2013-05-06 13:47:00,42.4,41.9,30.04,SE,145,1.0,12.0,98,0.03,,,0.81,meteohub,2013-05-06 20:47:00,
2013-05-06 13:52:00,42.4,41.9,30.04,WNW,300,5.0,12.0,98,0.04,,,0.82,meteohub,2013-05-06 20:52:00,
2013-05-06 13:57:00,42.4,41.9,30.04,ENE,75,2.0,10.0,98,0.03,,,0.82,meteohub,2013-05-06 20:57:00,
2013-05-06 14:02:00,42.4,41.9,30.04,South,186,4.0,10.0,98,0.03,,,0.82,meteohub,2013-05-06 21:02:00,
2013-05-06 14:07:00,42.6,42.1,30.04,South,180,5.0,12.0,98,0.02,,,0.82,meteohub,2013-05-06 21:07:00,
2013-05-06 14:12:00,42.6,42.1,30.04,NE,49,6.0,12.0,98,0.02,,,0.82,meteohub,2013-05-06 21:12:00,
2013-05-06 14:17:00,42.6,42.1,30.03,SSE,158,2.0,13.0,98,0.02,,,0.82,meteohub,2013-05-06 21:17:00,
2013-05-06 14:22:00,42.6,42.1,30.04,NW,320,2.0,13.0,98,0.02,,,0.82,meteohub,2013-05-06 21:22:00,
2013-05-06 14:27:00,42.6,42.1,30.03,West,264,3.0,12.0,98,0.02,,,0.82,meteohub,2013-05-06 21:27:00,
2013-05-06 14:32:00,42.6,42.1,30.03,NW,315,2.0,9.0,98,0.02,,,0.82,meteohub,2013-05-06 21:32:00,
2013-05-06 14:37:00,42.4,41.9,30.03,South,190,1.0,10.0,98,0.02,,,0.82,meteohub,2013-05-06 21:37:00,
2013-05-06 14:42:00,42.1,41.5,30.03,SSW,203,2.0,10.0,98,0.01,,,0.82,meteohub,2013-05-06 21:42:00,
2013-05-06 14:47:00,42.1,41.5,30.03,East,84,3.0,11.0,98,0.05,,,0.86,meteohub,2013-05-06 21:47:00,
2013-05-06 14:52:00,41.7,41.2,30.03,West,270,0.0,11.0,98,0.07,,,0.89,meteohub,2013-05-06 21:52:00,
2013-05-06 14:57:00,41.7,41.2,30.03,South,172,2.0,12.0,98,0.07,,,0.89,meteohub,2013-05-06 21:57:00,
2013-05-06 15:02:00,41.7,41.2,30.02,East,94,5.0,12.0,98,0.07,,,0.89,meteohub,2013-05-06 22:02:00,
2013-05-06 15:07:00,41.7,41.2,30.03,West,259,0.0,10.0,98,0.07,,,0.89,meteohub,2013-05-06 22:07:00,
2013-05-06 15:12:00,41.9,41.4,30.02,SSW,212,2.0,9.0,98,0.07,,,0.89,meteohub,2013-05-06 22:12:00,
2013-05-06 15:17:00,42.1,41.5,30.02,ESE,120,4.0,13.0,98,0.08,,,0.90,meteohub,2013-05-06 22:17:00,
2013-05-06 15:22:00,42.1,41.5,30.02,East,96,4.0,13.0,98,0.08,,,0.90,meteohub,2013-05-06 22:22:00,
2013-05-06 15:27:00,42.1,41.5,30.02,SE,145,2.0,10.0,98,0.08,,,0.90,meteohub,2013-05-06 22:27:00,
2013-05-06 15:32:00,42.1,41.5,30.02,SE,138,13.0,13.0,98,0.09,,,0.91,meteohub,2013-05-06 22:32:00,
2013-05-06 15:37:00,42.1,41.5,30.02,SE,143,3.0,13.0,98,0.10,,,0.92,meteohub,2013-05-06 22:37:00,
2013-05-06 15:42:00,42.1,41.5,30.02,SE,145,7.0,13.0,98,0.09,,,0.92,meteohub,2013-05-06 22:42:00,
2013-05-06 15:47:00,42.3,41.7,30.02,WSW,241,0.0,13.0,98,0.06,,,0.93,meteohub,2013-05-06 22:47:00,
2013-05-06 15:52:00,42.3,41.7,30.02,East,82,2.0,12.0,98,0.05,,,0.94,meteohub,2013-05-06 22:52:00,
2013-05-06 15:57:00,42.3,41.7,30.02,WNW,292,7.0,22.0,98,0.05,,,0.94,meteohub,2013-05-06 22:57:00,
2013-05-06 16:02:00,42.3,41.7,30.02,ENE,76,2.0,22.0,98,0.06,,,0.95,meteohub,2013-05-06 23:02:00,
2013-05-06 16:07:00,42.3,41.7,30.02,NW,304,0.0,22.0,98,0.07,,,0.96,meteohub,2013-05-06 23:07:00,
2013-05-06 16:12:00,42.4,41.9,30.02,NE,44,2.0,14.0,98,0.07,,,0.97,meteohub,2013-05-06 23:12:00,
2013-05-06 16:17:00,42.3,41.7,30.02,WNW,300,2.0,14.0,98,0.09,,,0.99,meteohub,2013-05-06 23:17:00,
2013-05-06 16:22:00,42.3,41.7,30.02,SE,145,3.0,7.0,98,0.10,,,1.00,meteohub,2013-05-06 23:22:00,
2013-05-06 16:27:00,42.1,41.5,30.02,NNW,331,3.0,10.0,98,0.10,,,1.00,meteohub,2013-05-06 23:27:00,
2013-05-06 16:32:00,42.1,41.5,30.02,West,274,2.0,10.0,98,0.09,,,1.00,meteohub,2013-05-06 23:32:00,
2013-05-06 16:37:00,42.1,41.5,30.03,ENE,77,5.0,9.0,98,0.08,,,1.00,meteohub,2013-05-06 23:37:00,
2013-05-06 16:42:00,42.3,41.7,30.03,WSW,250,5.0,8.0,98,0.07,,,1.00,meteohub,2013-05-06 23:42:00,
2013-05-06 16:47:00,42.3,41.7,30.03,West,273,3.0,10.0,98,0.07,,,1.00,meteohub,2013-05-06 23:47:00,
2013-05-06 16:52:00,42.3,41.7,30.03,WNW,302,3.0,13.0,98,0.06,,,1.00,meteohub,2013-05-06 23:52:00,
2013-05-06 16:57:00,42.4,41.9,30.03,ESE,113,2.0,14.0,98,0.06,,,1.00,meteohub,2013-05-06 23:57:00,
2013-05-06 17:02:00,42.4,41.9,30.03,SSE,155,6.0,14.0,98,0.05,,,1.00,meteohub,2013-05-07 00:02:00,
2013-05-06 17:07:00,42.3,41.7,30.04,SSW,212,3.0,14.0,98,0.04,,,1.00,meteohub,2013-05-07 00:07:00,
2013-05-06 17:12:00,41.9,41.4,30.03,SSW,197,6.0,14.0,98,0.05,,,1.02,meteohub,2013-05-07 00:12:00,
2013-05-06 17:17:00,41.7,41.2,30.04,ESE,110,3.0,16.0,98,0.05,,,1.05,meteohub,2013-05-07 00:17:00,
2013-05-06 17:22:00,41.5,41.0,30.04,SSE,155,1.0,16.0,98,0.07,,,1.07,meteohub,2013-05-07 00:22:00,
2013-05-06 17:32:00,41.9,41.4,30.04,East,79,8.0,13.0,98,0.07,,,1.07,meteohub,2013-05-07 00:32:00,
2013-05-06 17:37:00,42.1,41.5,30.04,ESE,103,2.0,13.0,98,0.08,,,1.08,meteohub,2013-05-07 00:37:00,
2013-05-06 17:42:00,42.1,41.5,30.03,ESE,111,2.0,19.0,98,0.08,,,1.08,meteohub,2013-05-07 00:42:00,
2013-05-06 17:47:00,42.3,41.7,30.03,East,93,2.0,19.0,98,0.08,,,1.08,meteohub,2013-05-07 00:47:00,
2013-05-06 17:52:00,42.3,41.7,30.03,WSW,238,4.0,17.0,98,0.08,,,1.08,meteohub,2013-05-07 00:52:00,
2013-05-06 17:57:00,42.1,41.5,30.03,South,174,7.0,16.0,98,0.08,,,1.08,meteohub,2013-05-07 00:57:00,
2013-05-06 18:02:00,41.7,41.2,30.03,SW,219,6.0,16.0,98,0.08,,,1.08,meteohub,2013-05-07 01:02:00,
2013-05-06 18:07:00,41.9,41.4,30.03,WSW,256,5.0,17.0,98,0.08,,,1.08,meteohub,2013-05-07 01:07:00,
2013-05-06 18:12:00,41.7,41.2,30.03,SSE,164,11.0,17.0,98,0.05,,,1.08,meteohub,2013-05-07 01:12:00,
2013-05-06 18:17:00,41.7,41.2,30.03,WSW,254,4.0,17.0,98,0.02,,,1.08,meteohub,2013-05-07 01:17:00,
2013-05-06 18:22:00,41.7,41.2,30.02,ESE,103,12.0,14.0,98,0.01,,,1.08,meteohub,2013-05-07 01:22:00,
2013-05-06 18:27:00,41.7,41.2,30.03,East,86,5.0,15.0,98,0.02,,,1.09,meteohub,2013-05-07 01:27:00,
2013-05-06 18:32:00,41.5,41.0,30.03,WNW,291,4.0,15.0,98,0.02,,,1.09,meteohub,2013-05-07 01:32:00,
2013-05-06 18:37:00,41.5,41.0,30.03,SSE,160,6.0,12.0,98,0.01,,,1.09,meteohub,2013-05-07 01:37:00,
2013-05-06 18:42:00,41.2,40.6,30.03,South,169,9.0,18.0,98,0.01,,,1.09,meteohub,2013-05-07 01:42:00,
2013-05-06 18:47:00,41.2,40.6,30.03,WNW,298,1.0,18.0,98,0.01,,,1.09,meteohub,2013-05-07 01:47:00,
2013-05-06 18:52:00,40.8,40.3,30.03,WSW,248,3.0,18.0,98,0.01,,,1.09,meteohub,2013-05-07 01:52:00,
2013-05-06 18:57:00,40.6,40.1,30.04,ENE,77,6.0,17.0,98,0.01,,,1.09,meteohub,2013-05-07 01:57:00,
2013-05-06 19:02:00,40.5,39.9,30.04,NNE,32,2.0,18.0,98,0.01,,,1.09,meteohub,2013-05-07 02:02:00,
2013-05-06 19:07:00,40.5,39.9,30.03,SE,129,7.0,20.0,98,0.01,,,1.09,meteohub,2013-05-07 02:07:00,
2013-05-06 19:12:00,40.5,39.9,30.04,ESE,120,3.0,20.0,98,0.01,,,1.09,meteohub,2013-05-07 02:12:00,
2013-05-06 19:17:00,39.9,39.4,30.04,East,97,2.0,18.0,98,0.01,,,1.09,meteohub,2013-05-07 02:17:00,
2013-05-06 19:22:00,39.7,39.2,30.04,SE,141,3.0,18.0,98,0.01,,,1.09,meteohub,2013-05-07 02:22:00,
2013-05-06 19:27:00,39.6,39.0,30.04,SSE,168,3.0,18.0,98,0.00,,,1.09,meteohub,2013-05-07 02:27:00,
2013-05-06 19:32:00,39.4,38.8,30.04,SE,136,2.0,12.0,98,0.00,,,1.09,meteohub,2013-05-07 02:32:00,
2013-05-06 19:37:00,39.4,38.8,30.04,ESE,107,6.0,16.0,98,0.00,,,1.09,meteohub,2013-05-07 02:37:00,
2013-05-06 19:47:00,39.0,38.5,30.04,SE,145,5.0,17.0,98,0.00,,,1.09,meteohub,2013-05-07 02:47:00,
2013-05-06 19:52:00,39.0,38.5,30.05,North,350,3.0,11.0,98,0.00,,,1.09,meteohub,2013-05-07 02:52:00,
2013-05-06 19:57:00,39.0,38.5,30.05,SSE,156,5.0,14.0,98,0.00,,,1.09,meteohub,2013-05-07 02:57:00,
2013-05-06 20:02:00,38.8,38.3,30.05,SSE,150,2.0,15.0,98,0.00,,,1.09,meteohub,2013-05-07 03:02:00,
2013-05-06 20:07:00,39.0,38.5,30.05,WSW,242,6.0,15.0,98,0.00,,,1.09,meteohub,2013-05-07 03:07:00,
2013-05-06 20:12:00,38.8,38.3,30.06,ESE,102,0.0,15.0,98,0.00,,,1.09,meteohub,2013-05-07 03:12:00,
2013-05-06 20:17:00,38.8,38.3,30.06,West,277,1.0,12.0,98,0.00,,,1.09,meteohub,2013-05-07 03:17:00,
2013-05-06 20:22:00,39.0,38.5,30.05,South,184,0.0,13.0,98,0.00,,,1.09,meteohub,2013-05-07 03:22:00,
2013-05-06 20:27:00,39.2,38.7,30.05,SE,146,3.0,13.0,98,0.00,,,1.09,meteohub,2013-05-07 03:27:00,
2013-05-06 20:32:00,39.2,38.7,30.05,South,172,2.0,11.0,98,0.00,,,1.09,meteohub,2013-05-07 03:32:00,
2013-05-06 20:37:00,39.4,38.8,30.06,WSW,252,3.0,11.0,98,0.00,,,1.09,meteohub,2013-05-07 03:37:00,
2013-05-06 20:42:00,39.2,38.7,30.06,SSW,192,2.0,13.0,98,0.00,,,1.09,meteohub,2013-05-07 03:42:00,
2013-05-06 20:47:00,39.0,38.5,30.06,East,97,2.0,13.0,98,0.00,,,1.09,meteohub,2013-05-07 03:47:00,
2013-05-06 20:52:00,38.8,38.3,30.06,East,92,5.0,14.0,98,0.00,,,1.09,meteohub,2013-05-07 03:52:00,
2013-05-06 20:57:00,39.2,38.7,30.06,SW,226,5.0,17.0,98,0.00,,,1.09,meteohub,2013-05-07 03:57:00,
2013-05-06 21:02:00,39.4,38.8,30.07,East,100,0.0,17.0,98,0.00,,,1.09,meteohub,2013-05-07 04:02:00,
2013-05-06 21:07:00,39.6,39.0,30.06,ESE,115,4.0,17.0,98,0.00,,,1.09,meteohub,2013-05-07 04:07:00,
2013-05-06 21:12:00,39.6,39.0,30.07,SSE,158,0.0,8.0,98,0.00,,,1.09,meteohub,2013-05-07 04:12:00,
2013-05-06 21:17:00,39.6,39.0,30.07,East,94,0.0,16.0,98,0.01,,,1.10,meteohub,2013-05-07 04:17:00,
2013-05-06 21:22:00,39.6,39.0,30.07,SSE,148,5.0,16.0,98,0.01,,,1.10,meteohub,2013-05-07 04:22:00,
2013-05-06 21:27:00,39.4,38.8,30.08,SW,226,4.0,10.0,98,0.01,,,1.10,meteohub,2013-05-07 04:27:00,
2013-05-06 21:32:00,39.2,38.7,30.08,ESE,105,4.0,14.0,98,0.01,,,1.10,meteohub,2013-05-07 04:32:00,
2013-05-06 21:37:00,39.0,38.5,30.07,ESE,115,2.0,17.0,98,0.01,,,1.10,meteohub,2013-05-07 04:37:00,
2013-05-06 21:42:00,39.0,38.5,30.07,SSW,204,3.0,17.0,98,0.01,,,1.10,meteohub,2013-05-07 04:42:00,
2013-05-06 21:47:00,39.2,38.7,30.08,SW,218,5.0,17.0,98,0.01,,,1.10,meteohub,2013-05-07 04:47:00,
2013-05-06 21:52:00,39.2,38.7,30.08,SSE,148,0.0,11.0,98,0.01,,,1.10,meteohub,2013-05-07 04:52:00,
2013-05-06 21:57:00,39.2,38.7,30.08,NW,312,0.0,10.0,98,0.01,,,1.10,meteohub,2013-05-07 04:57:00,
2013-05-06 22:02:00,39.0,38.5,30.08,SE,132,8.0,11.0,98,0.01,,,1.10,meteohub,2013-05-07 05:02:00,
2013-05-06 22:07:00,38.8,38.7,30.08,South,169,3.0,15.0,99,0.01,,,1.10,meteohub,2013-05-07 05:07:00,
2013-05-06 22:12:00,39.0,38.8,30.07,ESE,110,7.0,15.0,99,0.00,,,1.10,meteohub,2013-05-07 05:12:00,
2013-05-06 22:17:00,39.0,38.5,30.08,ENE,77,0.0,12.0,98,0.00,,,1.10,meteohub,2013-05-07 05:17:00,
2013-05-06 22:22:00,39.0,38.8,30.08,ENE,70,5.0,14.0,99,0.00,,,1.10,meteohub,2013-05-07 05:22:00,
2013-05-06 22:27:00,38.8,38.3,30.08,SE,129,3.0,14.0,98,0.00,,,1.10,meteohub,2013-05-07 05:27:00,
2013-05-06 22:32:00,38.8,38.3,30.08,NE,49,1.0,14.0,98,0.00,,,1.10,meteohub,2013-05-07 05:32:00,
2013-05-06 22:37:00,38.7,38.1,30.08,SSW,193,0.0,11.0,98,0.00,,,1.10,meteohub,2013-05-07 05:37:00,
2013-05-06 22:42:00,38.3,37.8,30.08,ENE,74,5.0,8.0,98,0.00,,,1.10,meteohub,2013-05-07 05:42:00,
2013-05-06 22:47:00,37.9,37.4,30.08,East,79,3.0,19.0,98,0.01,,,1.11,meteohub,2013-05-07 05:47:00,
2013-05-06 22:52:00,37.9,37.4,30.08,ENE,77,12.0,19.0,98,0.01,,,1.11,meteohub,2013-05-07 05:52:00,
2013-05-06 22:57:00,37.9,37.4,30.08,ESE,110,2.0,19.0,98,0.01,,,1.11,meteohub,2013-05-07 05:57:00,
2013-05-06 23:02:00,37.9,37.8,30.07,ESE,114,7.0,17.0,99,0.01,,,1.11,meteohub,2013-05-07 06:02:00,
2013-05-06 23:07:00,38.1,37.6,30.07,ESE,117,5.0,18.0,98,0.01,,,1.11,meteohub,2013-05-07 06:07:00,
2013-05-06 23:12:00,38.1,37.6,30.08,SSE,158,0.0,18.0,98,0.01,,,1.11,meteohub,2013-05-07 06:12:00,
2013-05-06 23:17:00,38.3,37.8,30.07,WSW,245,1.0,18.0,98,0.02,,,1.12,meteohub,2013-05-07 06:17:00,
2013-05-06 23:22:00,38.5,38.3,30.07,WSW,257,4.0,11.0,99,0.02,,,1.12,meteohub,2013-05-07 06:22:00,
2013-05-06 23:27:00,38.5,37.9,30.08,NNW,346,0.0,11.0,98,0.02,,,1.12,meteohub,2013-05-07 06:27:00,
2013-05-06 23:32:00,38.5,37.9,30.07,ESE,122,9.0,9.0,98,0.02,,,1.12,meteohub,2013-05-07 06:32:00,
2013-05-06 23:37:00,38.3,38.1,30.07,SE,134,12.0,22.0,99,0.02,,,1.12,meteohub,2013-05-07 06:37:00,
2013-05-06 23:42:00,38.3,38.1,30.07,East,82,3.0,22.0,99,0.02,,,1.13,meteohub,2013-05-07 06:42:00,
2013-05-06 23:47:00,38.3,38.1,30.07,ESE,108,1.0,22.0,99,0.02,,,1.13,meteohub,2013-05-07 06:47:00,
2013-05-06 23:52:00,38.1,37.9,30.07,SSE,154,5.0,22.0,99,0.02,,,1.13,meteohub,2013-05-07 06:52:00,
2013-05-06 23:57:00,38.1,37.9,30.08,South,170,3.0,18.0,99,0.02,,,1.13,meteohub,2013-05-07 06:57:00,